sensor_id;sensor_type;location;lat;lon;timestamp;pressure;altitude;pressure_sealevel;temperature;humidity
54453;BME280;40363;52.270;10.546;2023-04-26T00:01:30;77465.72;;;-147.06;75.06
54453;BME280;40363;52.270;10.546;2023-04-26T00:03:58;77476.00;;;-147.06;74.96
54453;BME280;40363;52.270;10.546;2023-04-26T00:06:25;77476.00;;;-147.06;74.81
54453;BME280;40363;52.270;10.546;2023-04-26T00:08:52;77492.44;;;-147.06;75.17
54453;BME280;40363;52.270;10.546;2023-04-26T00:11:18;77492.44;;;-147.06;75.16
54453;BME280;40363;52.270;10.546;2023-04-26T00:13:45;77488.34;;;-147.06;74.93
54453;BME280;40363;52.270;10.546;2023-04-26T00:16:12;77504.78;;;-147.06;75.58
54453;BME280;40363;52.270;10.546;2023-04-26T00:18:39;77492.44;;;-147.06;75.29
54453;BME280;40363;52.270;10.546;2023-04-26T00:21:08;77506.84;;;-147.06;75.70
54453;BME280;40363;52.270;10.546;2023-04-26T00:23:35;77513.00;;;-147.06;75.70
54453;BME280;40363;52.270;10.546;2023-04-26T00:26:02;77506.84;;;-147.06;75.27
54453;BME280;40363;52.270;10.546;2023-04-26T00:28:29;77521.22;;;-147.06;75.42
54453;BME280;40363;52.270;10.546;2023-04-26T00:30:55;77523.28;;;-147.06;75.78
54453;BME280;40363;52.270;10.546;2023-04-26T00:33:22;77513.00;;;-147.06;75.71
54453;BME280;40363;52.270;10.546;2023-04-26T00:35:49;77521.22;;;-147.06;75.74
54453;BME280;40363;52.270;10.546;2023-04-26T00:38:17;77529.44;;;-147.06;75.98
54453;BME280;40363;52.270;10.546;2023-04-26T00:40:43;77529.44;;;-147.06;76.17
54453;BME280;40363;52.270;10.546;2023-04-26T00:43:10;77525.34;;;-147.06;75.84
54453;BME280;40363;52.270;10.546;2023-04-26T00:45:37;77529.44;;;-147.06;76.50
54453;BME280;40363;52.270;10.546;2023-04-26T00:48:04;77533.56;;;-147.06;76.67
54453;BME280;40363;52.270;10.546;2023-04-26T00:50:31;77535.63;;;-147.06;76.74
54453;BME280;40363;52.270;10.546;2023-04-26T00:52:58;77535.63;;;-147.06;76.84
54453;BME280;40363;52.270;10.546;2023-04-26T00:55:28;77543.84;;;-147.06;77.01
54453;BME280;40363;52.270;10.546;2023-04-26T00:57:55;77539.72;;;-147.06;77.29
54453;BME280;40363;52.270;10.546;2023-04-26T01:00:22;77543.84;;;-147.06;77.65
54453;BME280;40363;52.270;10.546;2023-04-26T01:02:48;77543.84;;;-147.06;77.62
54453;BME280;40363;52.270;10.546;2023-04-26T01:05:15;77552.06;;;-147.06;77.63
54453;BME280;40363;52.270;10.546;2023-04-26T01:07:42;77550.00;;;-147.06;77.99
54453;BME280;40363;52.270;10.546;2023-04-26T01:10:10;77547.94;;;-147.06;77.89
54453;BME280;40363;52.270;10.546;2023-04-26T01:12:38;77552.06;;;-147.06;78.01
54453;BME280;40363;52.270;10.546;2023-04-26T01:15:06;77558.22;;;-147.06;78.17
54453;BME280;40363;52.270;10.546;2023-04-26T01:17:33;77564.41;;;-147.06;78.44
54453;BME280;40363;52.270;10.546;2023-04-26T01:20:02;77570.56;;;-147.06;78.65
54453;BME280;40363;52.270;10.546;2023-04-26T01:22:33;77570.56;;;-147.06;78.71
54453;BME280;40363;52.270;10.546;2023-04-26T01:25:00;77570.56;;;-147.06;78.79
54453;BME280;40363;52.270;10.546;2023-04-26T01:27:29;77568.50;;;-147.06;78.84
54453;BME280;40363;52.270;10.546;2023-04-26T01:29:56;77587.00;;;-147.06;79.16
54453;BME280;40363;52.270;10.546;2023-04-26T01:32:22;77584.97;;;-147.06;79.61
54453;BME280;40363;52.270;10.546;2023-04-26T01:34:49;77587.00;;;-147.06;79.15
54453;BME280;40363;52.270;10.546;2023-04-26T01:37:16;77591.13;;;-147.06;79.21
54453;BME280;40363;52.270;10.546;2023-04-26T01:39:44;77580.84;;;-147.06;79.05
54453;BME280;40363;52.270;10.546;2023-04-26T01:42:10;77584.97;;;-147.06;79.18
54453;BME280;40363;52.270;10.546;2023-04-26T01:44:37;77595.25;;;-147.06;79.17
54453;BME280;40363;52.270;10.546;2023-04-26T01:47:04;77595.25;;;-147.06;79.16
54453;BME280;40363;52.270;10.546;2023-04-26T01:49:30;77587.00;;;-147.06;79.08
54453;BME280;40363;52.270;10.546;2023-04-26T01:51:57;77595.25;;;-147.06;78.99
54453;BME280;40363;52.270;10.546;2023-04-26T01:54:24;77591.13;;;-147.06;78.86
54453;BME280;40363;52.270;10.546;2023-04-26T01:56:52;77595.25;;;-147.06;79.18
54453;BME280;40363;52.270;10.546;2023-04-26T01:59:19;77603.47;;;-147.06;79.55
54453;BME280;40363;52.270;10.546;2023-04-26T02:01:45;77613.75;;;-147.06;79.59
54453;BME280;40363;52.270;10.546;2023-04-26T02:04:12;77621.97;;;-147.06;79.69
54453;BME280;40363;52.270;10.546;2023-04-26T02:06:38;77628.13;;;-147.06;80.08
54453;BME280;40363;52.270;10.546;2023-04-26T02:09:06;77626.06;;;-147.06;80.07
54453;BME280;40363;52.270;10.546;2023-04-26T02:11:33;77638.41;;;-147.06;80.76
54453;BME280;40363;52.270;10.546;2023-04-26T02:14:01;77636.34;;;-147.06;80.68
54453;BME280;40363;52.270;10.546;2023-04-26T02:16:28;77630.19;;;-147.06;80.63
54453;BME280;40363;52.270;10.546;2023-04-26T02:18:54;77632.25;;;-147.06;80.66
54453;BME280;40363;52.270;10.546;2023-04-26T02:21:21;77636.34;;;-147.06;80.26
54453;BME280;40363;52.270;10.546;2023-04-26T02:23:47;77632.25;;;-147.06;80.35
54453;BME280;40363;52.270;10.546;2023-04-26T02:26:14;77626.06;;;-147.06;80.02
54453;BME280;40363;52.270;10.546;2023-04-26T02:28:40;77632.25;;;-147.06;80.59
54453;BME280;40363;52.270;10.546;2023-04-26T02:31:08;77634.31;;;-147.06;80.69
54453;BME280;40363;52.270;10.546;2023-04-26T02:33:35;77628.13;;;-147.06;80.26
54453;BME280;40363;52.270;10.546;2023-04-26T02:36:02;77636.34;;;-147.06;80.41
54453;BME280;40363;52.270;10.546;2023-04-26T02:38:31;77632.25;;;-147.06;80.05
54453;BME280;40363;52.270;10.546;2023-04-26T02:40:58;77628.13;;;-147.06;80.22
54453;BME280;40363;52.270;10.546;2023-04-26T02:43:24;77624.03;;;-147.06;79.82
54453;BME280;40363;52.270;10.546;2023-04-26T02:45:51;77640.47;;;-147.06;79.92
54453;BME280;40363;52.270;10.546;2023-04-26T02:48:19;77638.41;;;-147.06;80.30
54453;BME280;40363;52.270;10.546;2023-04-26T02:50:46;77632.25;;;-147.06;80.09
54453;BME280;40363;52.270;10.546;2023-04-26T02:53:13;77636.34;;;-147.06;79.89
54453;BME280;40363;52.270;10.546;2023-04-26T02:55:41;77632.25;;;-147.06;79.82
54453;BME280;40363;52.270;10.546;2023-04-26T02:58:08;77636.34;;;-147.06;79.87
54453;BME280;40363;52.270;10.546;2023-04-26T03:00:34;77642.53;;;-147.06;79.82
54453;BME280;40363;52.270;10.546;2023-04-26T03:03:01;77640.47;;;-147.06;79.87
54453;BME280;40363;52.270;10.546;2023-04-26T03:05:29;77642.53;;;-147.06;80.27
54453;BME280;40363;52.270;10.546;2023-04-26T03:07:55;77642.53;;;-147.06;80.27
54453;BME280;40363;52.270;10.546;2023-04-26T03:10:22;77648.69;;;-147.06;80.20
54453;BME280;40363;52.270;10.546;2023-04-26T03:12:49;77636.34;;;-147.06;79.79
54453;BME280;40363;52.270;10.546;2023-04-26T03:15:16;77642.53;;;-147.06;80.10
54453;BME280;40363;52.270;10.546;2023-04-26T03:17:42;77640.47;;;-147.06;80.35
54453;BME280;40363;52.270;10.546;2023-04-26T03:20:10;77650.75;;;-147.06;80.24
54453;BME280;40363;52.270;10.546;2023-04-26T03:22:38;77658.97;;;-147.06;80.32
54453;BME280;40363;52.270;10.546;2023-04-26T03:25:05;77652.81;;;-147.06;80.58
54453;BME280;40363;52.270;10.546;2023-04-26T03:27:32;77658.97;;;-147.06;80.81
54453;BME280;40363;52.270;10.546;2023-04-26T03:29:58;77650.75;;;-147.06;80.84
54453;BME280;40363;52.270;10.546;2023-04-26T03:32:25;77642.53;;;-147.06;80.30
54453;BME280;40363;52.270;10.546;2023-04-26T03:34:52;77634.31;;;-147.06;80.13
54453;BME280;40363;52.270;10.546;2023-04-26T03:37:18;77640.47;;;-147.06;80.17
54453;BME280;40363;52.270;10.546;2023-04-26T03:39:46;77640.47;;;-147.06;80.07
54453;BME280;40363;52.270;10.546;2023-04-26T03:42:14;77638.41;;;-147.06;80.23
54453;BME280;40363;52.270;10.546;2023-04-26T03:44:41;77632.25;;;-147.06;80.12
54453;BME280;40363;52.270;10.546;2023-04-26T03:47:08;77632.25;;;-147.06;80.01
54453;BME280;40363;52.270;10.546;2023-04-26T03:49:34;77640.47;;;-147.06;80.08
54453;BME280;40363;52.270;10.546;2023-04-26T03:52:01;77658.97;;;-147.06;80.70
54453;BME280;40363;52.270;10.546;2023-04-26T03:54:28;77648.69;;;-147.06;80.81
54453;BME280;40363;52.270;10.546;2023-04-26T03:56:56;77648.69;;;-147.06;80.62
54453;BME280;40363;52.270;10.546;2023-04-26T03:59:23;77628.13;;;-147.06;80.07
54453;BME280;40363;52.270;10.546;2023-04-26T04:01:49;77638.41;;;-147.06;80.16
54453;BME280;40363;52.270;10.546;2023-04-26T04:04:16;77640.47;;;-147.06;80.14
54453;BME280;40363;52.270;10.546;2023-04-26T04:06:43;77656.91;;;-147.06;80.78
54453;BME280;40363;52.270;10.546;2023-04-26T04:09:09;77650.75;;;-147.06;80.38
54453;BME280;40363;52.270;10.546;2023-04-26T04:11:36;77656.91;;;-147.06;80.48
54453;BME280;40363;52.270;10.546;2023-04-26T04:14:04;77644.59;;;-147.06;80.53
54453;BME280;40363;52.270;10.546;2023-04-26T04:16:31;77654.84;;;-147.06;80.30
54453;BME280;40363;52.270;10.546;2023-04-26T04:18:58;77650.75;;;-147.06;80.41
54453;BME280;40363;52.270;10.546;2023-04-26T04:21:25;77640.47;;;-147.06;80.20
54453;BME280;40363;52.270;10.546;2023-04-26T04:23:51;77642.53;;;-147.06;80.02
54453;BME280;40363;52.270;10.546;2023-04-26T04:26:18;77638.41;;;-147.06;79.74
54453;BME280;40363;52.270;10.546;2023-04-26T04:28:45;77628.13;;;-147.06;79.31
54453;BME280;40363;52.270;10.546;2023-04-26T04:31:14;77624.03;;;-147.06;79.25
54453;BME280;40363;52.270;10.546;2023-04-26T04:33:41;77624.03;;;-147.06;79.31
54453;BME280;40363;52.270;10.546;2023-04-26T04:36:08;77624.03;;;-147.06;79.34
54453;BME280;40363;52.270;10.546;2023-04-26T04:38:35;77615.78;;;-147.06;79.01
54453;BME280;40363;52.270;10.546;2023-04-26T04:41:02;77626.06;;;-147.06;78.82
54453;BME280;40363;52.270;10.546;2023-04-26T04:43:28;77624.03;;;-147.06;78.90
54453;BME280;40363;52.270;10.546;2023-04-26T04:45:55;77617.84;;;-147.06;78.83
54453;BME280;40363;52.270;10.546;2023-04-26T04:48:24;77615.78;;;-147.06;78.54
54453;BME280;40363;52.270;10.546;2023-04-26T04:50:50;77636.34;;;-147.06;79.08
54453;BME280;40363;52.270;10.546;2023-04-26T04:53:17;77615.78;;;-147.06;78.57
54453;BME280;40363;52.270;10.546;2023-04-26T04:55:47;77611.69;;;-147.06;78.62
54453;BME280;40363;52.270;10.546;2023-04-26T04:58:15;77611.69;;;-147.06;78.85
54453;BME280;40363;52.270;10.546;2023-04-26T05:00:41;77611.69;;;-147.06;78.59
54453;BME280;40363;52.270;10.546;2023-04-26T05:03:10;77603.47;;;-147.06;78.76
54453;BME280;40363;52.270;10.546;2023-04-26T05:05:39;77603.47;;;-147.06;78.72
54453;BME280;40363;52.270;10.546;2023-04-26T05:08:06;77595.25;;;-147.06;78.43
54453;BME280;40363;52.270;10.546;2023-04-26T05:10:33;77599.34;;;-147.06;78.43
54453;BME280;40363;52.270;10.546;2023-04-26T05:13:00;77578.78;;;-147.06;78.13
54453;BME280;40363;52.270;10.546;2023-04-26T05:15:27;77574.69;;;-147.06;77.78
54453;BME280;40363;52.270;10.546;2023-04-26T05:17:53;77560.28;;;-147.06;77.42
54453;BME280;40363;52.270;10.546;2023-04-26T05:20:20;77552.06;;;-147.06;76.78
54453;BME280;40363;52.270;10.546;2023-04-26T05:22:48;77545.91;;;-147.06;76.24
54453;BME280;40363;52.270;10.546;2023-04-26T05:25:15;77541.78;;;-147.06;75.87
54453;BME280;40363;52.270;10.546;2023-04-26T05:27:42;77531.50;;;-147.06;75.22
54453;BME280;40363;52.270;10.546;2023-04-26T05:30:10;77517.13;;;-147.06;74.81
54453;BME280;40363;52.270;10.546;2023-04-26T05:32:38;77529.44;;;-147.06;75.11
54453;BME280;40363;52.270;10.546;2023-04-26T05:35:06;77525.34;;;-147.06;74.78
54453;BME280;40363;52.270;10.546;2023-04-26T05:37:33;77486.28;;;-147.06;74.04
54453;BME280;40363;52.270;10.546;2023-04-26T05:40:01;77480.09;;;-147.06;73.51
54453;BME280;40363;52.270;10.546;2023-04-26T05:42:28;77486.28;;;-147.06;73.60
54453;BME280;40363;52.270;10.546;2023-04-26T05:44:56;77486.28;;;-147.06;73.31
54453;BME280;40363;52.270;10.546;2023-04-26T05:47:23;77508.88;;;-147.06;73.88
54453;BME280;40363;52.270;10.546;2023-04-26T05:49:50;77504.78;;;-147.06;74.36
54453;BME280;40363;52.270;10.546;2023-04-26T05:52:16;77467.78;;;-147.06;73.80
54453;BME280;40363;52.270;10.546;2023-04-26T05:54:43;77484.22;;;-147.06;72.70
54453;BME280;40363;52.270;10.546;2023-04-26T05:57:11;77461.59;;;-147.06;72.65
54453;BME280;40363;52.270;10.546;2023-04-26T05:59:38;77465.72;;;-147.06;72.25
54453;BME280;40363;52.270;10.546;2023-04-26T06:02:05;77455.44;;;-147.06;72.17
54453;BME280;40363;52.270;10.546;2023-04-26T06:04:32;77457.50;;;-147.06;72.03
54453;BME280;40363;52.270;10.546;2023-04-26T06:06:59;77430.75;;;-147.06;71.73
54453;BME280;40363;52.270;10.546;2023-04-26T06:09:25;77418.44;;;-147.06;70.96
54453;BME280;40363;52.270;10.546;2023-04-26T06:11:52;77383.47;;;-147.06;70.28
54453;BME280;40363;52.270;10.546;2023-04-26T06:14:20;77389.66;;;-147.06;69.74
54453;BME280;40363;52.270;10.546;2023-04-26T06:16:47;77364.97;;;-147.06;69.54
54453;BME280;40363;52.270;10.546;2023-04-26T06:19:13;77375.25;;;-147.06;69.38
54453;BME280;40363;52.270;10.546;2023-04-26T06:21:40;77299.19;;;-147.06;67.40
54453;BME280;40363;52.270;10.546;2023-04-26T06:24:07;77299.19;;;-147.06;67.04
54453;BME280;40363;52.270;10.546;2023-04-26T06:26:34;77272.47;;;-147.06;65.79
54453;BME280;40363;52.270;10.546;2023-04-26T06:29:03;77151.19;;;-147.06;62.47
54453;BME280;40363;52.270;10.546;2023-04-26T06:31:31;77036.06;;;-147.06;59.77
54453;BME280;40363;52.270;10.546;2023-04-26T06:33:58;77021.66;;;-147.06;58.09
54453;BME280;40363;52.270;10.546;2023-04-26T06:36:25;76933.28;;;-147.06;57.32
54453;BME280;40363;52.270;10.546;2023-04-26T06:38:52;76937.38;;;-147.06;55.76
54453;BME280;40363;52.270;10.546;2023-04-26T06:41:19;77001.13;;;-147.06;57.44
54453;BME280;40363;52.270;10.546;2023-04-26T06:43:46;77058.66;;;-147.06;58.54
54453;BME280;40363;52.270;10.546;2023-04-26T06:46:13;77060.72;;;-147.06;58.88
54453;BME280;40363;52.270;10.546;2023-04-26T06:48:41;77056.63;;;-147.06;57.88
54453;BME280;40363;52.270;10.546;2023-04-26T06:51:08;77019.63;;;-147.06;57.78
54453;BME280;40363;52.270;10.546;2023-04-26T06:53:35;76805.84;;;-147.06;52.58
54453;BME280;40363;52.270;10.546;2023-04-26T06:56:02;76750.34;;;-147.06;50.62
54453;BME280;40363;52.270;10.546;2023-04-26T06:58:29;76943.56;;;-147.06;54.04
54453;BME280;40363;52.270;10.546;2023-04-26T07:00:56;76953.84;;;-147.06;54.83
54453;BME280;40363;52.270;10.546;2023-04-26T07:03:22;76744.16;;;-147.06;50.45
54453;BME280;40363;52.270;10.546;2023-04-26T07:05:50;76783.22;;;-147.06;50.31
54453;BME280;40363;52.270;10.546;2023-04-26T07:08:17;76781.16;;;-147.06;50.94
54453;BME280;40363;52.270;10.546;2023-04-26T07:10:44;76629.06;;;-147.06;47.81
54453;BME280;40363;52.270;10.546;2023-04-26T07:13:10;76565.34;;;-147.06;46.54
54453;BME280;40363;52.270;10.546;2023-04-26T07:15:37;76522.19;;;-147.06;45.29
54453;BME280;40363;52.270;10.546;2023-04-26T07:18:04;76614.69;;;-147.06;46.51
54453;BME280;40363;52.270;10.546;2023-04-26T07:20:31;76709.22;;;-147.06;48.45
54453;BME280;40363;52.270;10.546;2023-04-26T07:22:58;76735.94;;;-147.06;49.19
54453;BME280;40363;52.270;10.546;2023-04-26T07:25:25;76832.56;;;-147.06;50.95
54453;BME280;40363;52.270;10.546;2023-04-26T07:27:52;76888.06;;;-147.06;52.21
54453;BME280;40363;52.270;10.546;2023-04-26T07:30:19;76822.28;;;-147.06;51.14
54453;BME280;40363;52.270;10.546;2023-04-26T07:32:45;76670.16;;;-147.06;48.72
54453;BME280;40363;52.270;10.546;2023-04-26T07:35:12;76509.84;;;-147.06;45.88
54453;BME280;40363;52.270;10.546;2023-04-26T07:37:41;76614.69;;;-147.06;46.42
54453;BME280;40363;52.270;10.546;2023-04-26T07:40:10;76735.94;;;-147.06;49.21
54453;BME280;40363;52.270;10.546;2023-04-26T07:42:37;76844.88;;;-147.06;51.11
54453;BME280;40363;52.270;10.546;2023-04-26T07:45:05;76740.06;;;-147.06;48.95
54453;BME280;40363;52.270;10.546;2023-04-26T07:47:32;76857.22;;;-147.06;50.66
54453;BME280;40363;52.270;10.546;2023-04-26T07:49:59;76822.28;;;-147.06;49.87
54453;BME280;40363;52.270;10.546;2023-04-26T07:52:26;76816.13;;;-147.06;49.32
54453;BME280;40363;52.270;10.546;2023-04-26T07:54:52;76851.06;;;-147.06;50.02
54453;BME280;40363;52.270;10.546;2023-04-26T07:57:20;76826.38;;;-147.06;49.35
54453;BME280;40363;52.270;10.546;2023-04-26T07:59:47;76733.88;;;-147.06;48.05
54453;BME280;40363;52.270;10.546;2023-04-26T08:02:13;76645.50;;;-147.06;46.35
54453;BME280;40363;52.270;10.546;2023-04-26T08:04:46;76740.06;;;-147.06;47.87
54453;BME280;40363;52.270;10.546;2023-04-26T08:07:13;76820.22;;;-147.06;49.87
54453;BME280;40363;52.270;10.546;2023-04-26T08:09:40;76846.94;;;-147.06;50.35
54453;BME280;40363;52.270;10.546;2023-04-26T08:12:07;76799.66;;;-147.06;49.50
54453;BME280;40363;52.270;10.546;2023-04-26T08:14:35;76596.19;;;-147.06;46.02
54453;BME280;40363;52.270;10.546;2023-04-26T08:17:02;76513.97;;;-147.06;44.33
54453;BME280;40363;52.270;10.546;2023-04-26T08:19:30;76439.97;;;-147.06;43.02
54453;BME280;40363;52.270;10.546;2023-04-26T08:21:57;76629.06;;;-147.06;44.56
54453;BME280;40363;52.270;10.546;2023-04-26T08:24:24;76748.28;;;-147.06;45.60
54453;BME280;40363;52.270;10.546;2023-04-26T08:26:51;76855.16;;;-147.06;47.49
54453;BME280;40363;52.270;10.546;2023-04-26T08:29:17;76943.56;;;-147.06;48.23
54453;BME280;40363;52.270;10.546;2023-04-26T08:31:46;76842.84;;;-147.06;47.23
54453;BME280;40363;52.270;10.546;2023-04-26T08:34:12;76579.72;;;-147.06;43.77
54453;BME280;40363;52.270;10.546;2023-04-26T08:36:39;76431.75;;;-147.06;41.91
54453;BME280;40363;52.270;10.546;2023-04-26T08:39:06;76513.97;;;-147.06;42.03
54453;BME280;40363;52.270;10.546;2023-04-26T08:41:35;76670.16;;;-147.06;43.01
54453;BME280;40363;52.270;10.546;2023-04-26T08:44:03;76814.06;;;-147.06;45.62
54453;BME280;40363;52.270;10.546;2023-04-26T08:46:35;76906.56;;;-147.06;47.04
54453;BME280;40363;52.270;10.546;2023-04-26T08:49:25;76768.84;;;-147.06;45.10
54453;BME280;40363;52.270;10.546;2023-04-26T08:51:56;76731.84;;;-147.06;44.07
54453;BME280;40363;52.270;10.546;2023-04-26T08:54:23;76756.50;;;-147.06;43.93
54453;BME280;40363;52.270;10.546;2023-04-26T08:56:52;76785.28;;;-147.06;44.75
54453;BME280;40363;52.270;10.546;2023-04-26T08:59:20;76830.50;;;-147.06;45.33
54453;BME280;40363;52.270;10.546;2023-04-26T09:01:48;76902.44;;;-147.06;45.96
54453;BME280;40363;52.270;10.546;2023-04-26T09:04:15;76937.38;;;-147.06;46.54
54453;BME280;40363;52.270;10.546;2023-04-26T09:06:44;76925.06;;;-147.06;46.36
54453;BME280;40363;52.270;10.546;2023-04-26T09:09:12;76744.16;;;-147.06;43.89
54453;BME280;40363;52.270;10.546;2023-04-26T09:11:53;76772.94;;;-147.06;43.25
54453;BME280;40363;52.270;10.546;2023-04-26T09:14:21;76834.63;;;-147.06;43.59
54453;BME280;40363;52.270;10.546;2023-04-26T09:16:47;76863.38;;;-147.06;44.02
54453;BME280;40363;52.270;10.546;2023-04-26T09:19:14;76801.72;;;-147.06;43.14
54453;BME280;40363;52.270;10.546;2023-04-26T09:21:45;76801.72;;;-147.06;43.92
54453;BME280;40363;52.270;10.546;2023-04-26T09:24:12;76799.66;;;-147.06;44.11
54453;BME280;40363;52.270;10.546;2023-04-26T09:26:39;76805.84;;;-147.06;44.40
54453;BME280;40363;52.270;10.546;2023-04-26T09:29:13;76879.84;;;-147.06;44.96
54453;BME280;40363;52.270;10.546;2023-04-26T09:31:41;76896.28;;;-147.06;45.12
54453;BME280;40363;52.270;10.546;2023-04-26T09:34:09;76849.00;;;-147.06;44.52
54453;BME280;40363;52.270;10.546;2023-04-26T09:36:48;76775.00;;;-147.06;43.20
54453;BME280;40363;52.270;10.546;2023-04-26T09:39:28;76643.44;;;-147.06;40.77
54453;BME280;40363;52.270;10.546;2023-04-26T09:41:56;76684.56;;;-147.06;41.21
54453;BME280;40363;52.270;10.546;2023-04-26T09:44:24;76731.84;;;-147.06;42.20
54453;BME280;40363;52.270;10.546;2023-04-26T09:46:58;76783.22;;;-147.06;42.61
54453;BME280;40363;52.270;10.546;2023-04-26T09:49:25;76840.78;;;-147.06;43.27
54453;BME280;40363;52.270;10.546;2023-04-26T09:52:06;76855.16;;;-147.06;43.74
54453;BME280;40363;52.270;10.546;2023-04-26T09:54:40;76886.00;;;-147.06;44.21
54453;BME280;40363;52.270;10.546;2023-04-26T09:57:07;76900.38;;;-147.06;44.38
54453;BME280;40363;52.270;10.546;2023-04-26T09:59:41;76908.63;;;-147.06;44.78
54453;BME280;40363;52.270;10.546;2023-04-26T10:02:13;76871.63;;;-147.06;44.32
54453;BME280;40363;52.270;10.546;2023-04-26T10:04:41;76912.72;;;-147.06;45.03
54453;BME280;40363;52.270;10.546;2023-04-26T10:07:11;76898.34;;;-147.06;45.31
54453;BME280;40363;52.270;10.546;2023-04-26T10:09:38;76904.50;;;-147.06;45.96
54453;BME280;40363;52.270;10.546;2023-04-26T10:12:06;76886.00;;;-147.06;45.39
54453;BME280;40363;52.270;10.546;2023-04-26T10:14:35;76859.28;;;-147.06;44.25
54453;BME280;40363;52.270;10.546;2023-04-26T10:17:02;76826.38;;;-147.06;43.82
54453;BME280;40363;52.270;10.546;2023-04-26T10:19:29;76826.38;;;-147.06;43.39
54453;BME280;40363;52.270;10.546;2023-04-26T10:22:00;76826.38;;;-147.06;43.52
54453;BME280;40363;52.270;10.546;2023-04-26T10:24:31;76731.84;;;-147.06;41.15
54453;BME280;40363;52.270;10.546;2023-04-26T10:26:57;76698.94;;;-147.06;41.21
54453;BME280;40363;52.270;10.546;2023-04-26T10:30:04;76723.63;;;-147.06;41.36
54453;BME280;40363;52.270;10.546;2023-04-26T10:36:08;76789.38;;;-147.06;41.36
54453;BME280;40363;52.270;10.546;2023-04-26T10:38:40;76791.44;;;-147.06;41.66
54453;BME280;40363;52.270;10.546;2023-04-26T10:41:27;76838.72;;;-147.06;42.20
54453;BME280;40363;52.270;10.546;2023-04-26T10:43:55;76886.00;;;-147.06;42.50
54453;BME280;40363;52.270;10.546;2023-04-26T10:46:35;76912.72;;;-147.06;42.81
54453;BME280;40363;52.270;10.546;2023-04-26T10:49:15;76953.84;;;-147.06;42.96
54453;BME280;40363;52.270;10.546;2023-04-26T10:52:10;76962.06;;;-147.06;43.66
54453;BME280;40363;52.270;10.546;2023-04-26T10:54:45;76927.13;;;-147.06;43.27
54453;BME280;40363;52.270;10.546;2023-04-26T10:57:13;76923.00;;;-147.06;43.24
54453;BME280;40363;52.270;10.546;2023-04-26T11:00:17;76886.00;;;-147.06;42.33
54453;BME280;40363;52.270;10.546;2023-04-26T11:03:04;76838.72;;;-147.06;41.63
54453;BME280;40363;52.270;10.546;2023-04-26T11:05:47;76863.38;;;-147.06;41.77
54453;BME280;40363;52.270;10.546;2023-04-26T11:08:18;76879.84;;;-147.06;41.54
54453;BME280;40363;52.270;10.546;2023-04-26T11:10:49;76937.38;;;-147.06;41.79
54453;BME280;40363;52.270;10.546;2023-04-26T11:13:19;76923.00;;;-147.06;41.75
54453;BME280;40363;52.270;10.546;2023-04-26T11:15:46;76910.66;;;-147.06;41.41
54453;BME280;40363;52.270;10.546;2023-04-26T11:18:17;76900.38;;;-147.06;41.55
54453;BME280;40363;52.270;10.546;2023-04-26T11:20:44;76881.88;;;-147.06;41.46
54453;BME280;40363;52.270;10.546;2023-04-26T11:23:11;76865.44;;;-147.06;41.14
54453;BME280;40363;52.270;10.546;2023-04-26T11:25:38;76840.78;;;-147.06;41.17
54453;BME280;40363;52.270;10.546;2023-04-26T11:28:05;76797.63;;;-147.06;40.79
54453;BME280;40363;52.270;10.546;2023-04-26T11:30:33;76783.22;;;-147.06;40.78
54453;BME280;40363;52.270;10.546;2023-04-26T11:33:01;76807.88;;;-147.06;41.14
54453;BME280;40363;52.270;10.546;2023-04-26T11:35:28;76840.78;;;-147.06;41.12
54453;BME280;40363;52.270;10.546;2023-04-26T11:37:57;76826.38;;;-147.06;41.09
54453;BME280;40363;52.270;10.546;2023-04-26T11:40:29;76824.34;;;-147.06;41.22
54453;BME280;40363;52.270;10.546;2023-04-26T11:42:58;76828.44;;;-147.06;41.61
54453;BME280;40363;52.270;10.546;2023-04-26T11:45:26;76820.22;;;-147.06;41.88
54453;BME280;40363;52.270;10.546;2023-04-26T11:47:54;76812.00;;;-147.06;41.58
54453;BME280;40363;52.270;10.546;2023-04-26T11:50:21;76795.56;;;-147.06;42.52
54453;BME280;40363;52.270;10.546;2023-04-26T11:52:52;76785.28;;;-147.06;41.06
54453;BME280;40363;52.270;10.546;2023-04-26T11:55:22;76777.06;;;-147.06;41.03
54453;BME280;40363;52.270;10.546;2023-04-26T11:57:49;76789.38;;;-147.06;40.47
54453;BME280;40363;52.270;10.546;2023-04-26T12:00:16;76756.50;;;-147.06;40.27
54453;BME280;40363;52.270;10.546;2023-04-26T12:02:44;76748.28;;;-147.06;40.49
54453;BME280;40363;52.270;10.546;2023-04-26T12:05:21;76738.00;;;-147.06;40.06
54453;BME280;40363;52.270;10.546;2023-04-26T12:07:52;76725.66;;;-147.06;39.32
54453;BME280;40363;52.270;10.546;2023-04-26T12:10:23;76758.56;;;-147.06;40.08
54453;BME280;40363;52.270;10.546;2023-04-26T12:12:50;76711.28;;;-147.06;40.08
54453;BME280;40363;52.270;10.546;2023-04-26T12:15:18;76676.34;;;-147.06;39.88
54453;BME280;40363;52.270;10.546;2023-04-26T12:17:54;76709.22;;;-147.06;40.15
54453;BME280;40363;52.270;10.546;2023-04-26T12:20:30;76738.00;;;-147.06;39.60
54453;BME280;40363;52.270;10.546;2023-04-26T12:23:02;76760.63;;;-147.06;40.03
54453;BME280;40363;52.270;10.546;2023-04-26T12:25:30;76803.78;;;-147.06;40.42
54453;BME280;40363;52.270;10.546;2023-04-26T12:27:57;76785.28;;;-147.06;40.39
54453;BME280;40363;52.270;10.546;2023-04-26T12:30:25;76762.66;;;-147.06;39.38
54453;BME280;40363;52.270;10.546;2023-04-26T12:32:52;76744.16;;;-147.06;38.76
54453;BME280;40363;52.270;10.546;2023-04-26T12:35:20;76727.72;;;-147.06;38.03
54453;BME280;40363;52.270;10.546;2023-04-26T12:37:48;76717.44;;;-147.06;37.96
54453;BME280;40363;52.270;10.546;2023-04-26T12:40:17;76696.88;;;-147.06;37.94